createdAt,value
2018-09-02T00:00:03.928Z,1013.96
2018-09-02T00:01:03.909Z,1013.97
2018-09-02T00:02:03.926Z,1013.95
2018-09-02T00:03:03.873Z,1013.94
2018-09-02T00:04:03.862Z,1013.95
2018-09-02T00:05:03.872Z,1013.96
2018-09-02T00:06:03.854Z,1013.97
2018-09-02T00:07:03.867Z,1013.96
2018-09-02T00:08:03.833Z,1013.97
2018-09-02T00:09:03.819Z,1013.98
2018-09-02T00:10:03.807Z,1013.97
2018-09-02T00:11:03.797Z,1013.97
2018-09-02T00:12:03.832Z,1013.99
2018-09-02T00:13:03.772Z,1013.97
2018-09-02T00:14:03.755Z,1013.96
2018-09-02T00:15:03.745Z,1013.99
2018-09-02T00:16:03.727Z,1013.99
2018-09-02T00:17:03.728Z,1013.96
2018-09-02T00:18:03.719Z,1013.97
2018-09-02T00:19:03.704Z,1013.95
2018-09-02T00:20:03.695Z,1013.92
2018-09-02T00:21:03.726Z,1013.95
2018-09-02T00:22:03.700Z,1013.92
2018-09-02T00:23:03.659Z,1013.96
2018-09-02T00:24:03.647Z,1013.93
2018-09-02T00:25:03.638Z,1013.93
2018-09-02T00:26:03.626Z,1013.93
2018-09-02T00:27:03.611Z,1013.93
2018-09-02T00:28:03.625Z,1013.91
2018-09-02T00:29:03.582Z,1013.91
2018-09-02T00:30:03.580Z,1013.90
2018-09-02T00:31:03.563Z,1013.94
2018-09-02T00:32:03.554Z,1013.92
2018-09-02T00:33:03.624Z,1013.94
2018-09-02T00:34:03.613Z,1013.92
2018-09-02T00:35:03.525Z,1013.97
2018-09-02T00:36:03.499Z,1013.94
2018-09-02T00:37:03.498Z,1013.93
2018-09-02T00:38:03.513Z,1013.92
2018-09-02T00:39:03.834Z,1013.92
2018-09-02T00:40:03.464Z,1013.93
2018-09-02T00:41:03.450Z,1013.88
2018-09-02T00:42:03.435Z,1013.87
2018-09-02T00:43:03.433Z,1013.92
2018-09-02T00:44:03.429Z,1013.92
2018-09-02T00:45:03.409Z,1013.87
2018-09-02T00:46:03.387Z,1013.86
2018-09-02T00:47:03.384Z,1013.88
2018-09-02T00:48:03.371Z,1013.87
2018-09-02T00:49:03.353Z,1013.90
2018-09-02T00:50:03.384Z,1013.94
2018-09-02T00:51:03.337Z,1013.94
2018-09-02T00:52:03.331Z,1013.92
2018-09-02T00:53:03.315Z,1013.92
2018-09-02T00:54:03.307Z,1013.88
2018-09-02T00:55:03.307Z,1013.90
2018-09-02T00:56:03.340Z,1013.87
2018-09-02T00:57:03.272Z,1013.88
2018-09-02T00:58:03.264Z,1013.88
2018-09-02T00:59:03.247Z,1013.90
2018-09-02T01:00:03.228Z,1013.87
2018-09-02T01:01:03.230Z,1013.90
2018-09-02T01:02:03.227Z,1013.90
2018-09-02T01:03:03.208Z,1013.89
2018-09-02T01:04:03.193Z,1013.91
2018-09-02T01:05:03.179Z,1013.92
2018-09-02T01:06:03.170Z,1013.92
2018-09-02T01:07:03.188Z,1013.92
2018-09-02T01:08:03.134Z,1013.95
2018-09-02T01:09:03.132Z,1013.93
2018-09-02T01:10:03.119Z,1013.98
2018-09-02T01:11:03.101Z,1014.00
2018-09-02T01:12:03.102Z,1013.98
2018-09-02T01:13:03.082Z,1013.99
2018-09-02T01:14:03.078Z,1014.01
2018-09-02T01:15:03.098Z,1013.99
2018-09-02T01:16:03.056Z,1014.00
2018-09-02T01:17:03.046Z,1014.01
2018-09-02T01:18:03.031Z,1014.01
2018-09-02T01:19:03.020Z,1014.02
2018-09-02T01:20:03.040Z,1014.06
2018-09-02T01:21:02.999Z,1014.03
2018-09-02T01:22:02.972Z,1014.02
2018-09-02T01:23:03.055Z,1014.04
2018-09-02T01:24:02.956Z,1014.05
2018-09-02T01:25:02.955Z,1014.03
2018-09-02T01:26:02.934Z,1014.05
2018-09-02T01:27:02.932Z,1014.07
2018-09-02T01:28:02.965Z,1014.08
2018-09-02T01:29:02.901Z,1014.05
2018-09-02T01:30:02.890Z,1014.11
2018-09-02T01:31:02.882Z,1014.09
2018-09-02T01:32:02.864Z,1014.08
2018-09-02T01:33:02.850Z,1014.08
2018-09-02T01:34:02.874Z,1014.09
2018-09-02T01:35:02.824Z,1014.07
2018-09-02T01:36:02.823Z,1014.09
2018-09-02T01:37:02.806Z,1014.05
2018-09-02T01:38:02.798Z,1014.05
2018-09-02T01:39:02.846Z,1014.06
2018-09-02T01:40:02.772Z,1014.07
2018-09-02T01:41:02.768Z,1014.09
2018-09-02T01:42:02.755Z,1014.08
2018-09-02T01:43:02.732Z,1014.09
2018-09-02T01:44:02.724Z,1014.10
2018-09-02T01:45:02.743Z,1014.11
2018-09-02T01:46:02.703Z,1014.11
2018-09-02T01:47:02.699Z,1014.11
2018-09-02T01:48:02.680Z,1014.13
2018-09-02T01:49:02.674Z,1014.13
2018-09-02T01:50:02.659Z,1014.10
2018-09-02T01:51:02.646Z,1014.11
2018-09-02T01:52:02.625Z,1014.09
2018-09-02T01:53:02.621Z,1014.11
2018-09-02T01:54:02.615Z,1014.08
2018-09-02T01:55:02.593Z,1014.09
2018-09-02T01:56:02.577Z,1014.10
2018-09-02T01:57:02.579Z,1014.08
2018-09-02T01:58:02.602Z,1014.09
2018-09-02T01:59:02.583Z,1014.11
2018-09-02T02:00:02.577Z,1014.08
2018-09-02T02:01:02.531Z,1014.08
2018-09-02T02:02:02.515Z,1014.09
2018-09-02T02:03:02.504Z,1014.11
2018-09-02T02:04:02.529Z,1014.06
2018-09-02T02:05:02.483Z,1014.07
2018-09-02T02:06:02.495Z,1014.06
2018-09-02T02:07:02.462Z,1014.00
2018-09-02T02:08:02.454Z,1014.02
2018-09-02T02:09:02.434Z,1014.02
2018-09-02T02:10:02.482Z,1014.08
2018-09-02T02:11:02.412Z,1014.05
2018-09-02T02:12:02.399Z,1014.04
2018-09-02T02:13:02.391Z,1014.09
2018-09-02T02:14:02.382Z,1014.04
2018-09-02T02:15:02.369Z,1014.03
2018-09-02T02:16:02.390Z,1014.02
2018-09-02T02:17:02.377Z,1014.03
2018-09-02T02:18:02.332Z,1014.04
2018-09-02T02:19:02.319Z,1014.06
2018-09-02T02:20:02.310Z,1014.03
2018-09-02T02:21:02.336Z,1014.04
2018-09-02T02:22:02.286Z,1014.02
2018-09-02T02:23:02.274Z,1014.06
2018-09-02T02:24:02.257Z,1014.05
2018-09-02T02:25:02.248Z,1014.00
2018-09-02T02:26:02.240Z,1013.99
2018-09-02T02:27:02.226Z,1014.03
2018-09-02T02:28:02.217Z,1014.02
2018-09-02T02:29:02.444Z,1014.02
2018-09-02T02:30:02.206Z,1014.02
2018-09-02T02:31:02.179Z,1014.05
2018-09-02T02:32:02.161Z,1014.05
2018-09-02T02:33:02.157Z,1014.04
2018-09-02T02:34:02.139Z,1014.03
2018-09-02T02:35:02.161Z,1014.04
2018-09-02T02:36:02.115Z,1014.04
2018-09-02T02:37:02.119Z,1014.06
2018-09-02T02:38:02.111Z,1014.02
2018-09-02T02:39:02.095Z,1014.03
2018-09-02T02:40:02.116Z,1014.01
2018-09-02T02:41:02.073Z,1014.01
2018-09-02T02:42:02.057Z,1014.01
2018-09-02T02:43:02.036Z,1014.02
2018-09-02T02:44:02.014Z,1014.05
2018-09-02T02:45:02.059Z,1014.03
2018-09-02T02:46:02.007Z,1013.98
2018-09-02T02:47:01.998Z,1014.02
2018-09-02T02:48:01.985Z,1014.02
2018-09-02T02:49:01.969Z,1014.02
2018-09-02T02:50:01.968Z,1014.02
2018-09-02T02:51:01.953Z,1014.03
2018-09-02T02:52:01.928Z,1014.04
2018-09-02T02:53:01.923Z,1014.05
2018-09-02T02:54:01.918Z,1014.05
2018-09-02T02:55:01.911Z,1014.01
2018-09-02T02:56:01.936Z,1014.01
2018-09-02T02:57:01.874Z,1014.03
2018-09-02T02:58:01.866Z,1014.02
2018-09-02T02:59:01.847Z,1014.00
2018-09-02T03:00:01.863Z,1014.01
2018-09-02T03:01:01.830Z,1013.96
2018-09-02T03:02:01.866Z,1013.95
2018-09-02T03:03:01.798Z,1013.93
2018-09-02T03:04:01.786Z,1013.92
2018-09-02T03:05:01.783Z,1013.91
2018-09-02T03:06:01.773Z,1013.92
2018-09-02T03:07:01.752Z,1013.90
2018-09-02T03:08:01.775Z,1013.89
2018-09-02T03:09:01.735Z,1013.88
2018-09-02T03:10:01.722Z,1013.90
2018-09-02T03:11:01.716Z,1013.90
2018-09-02T03:12:01.701Z,1013.89
2018-09-02T03:13:01.763Z,1013.89
2018-09-02T03:14:01.674Z,1013.88
2018-09-02T03:15:01.664Z,1013.91
2018-09-02T03:16:01.653Z,1013.93
2018-09-02T03:17:01.654Z,1013.92
2018-09-02T03:18:01.634Z,1013.89
2018-09-02T03:19:01.622Z,1013.96
2018-09-02T03:20:01.607Z,1013.93
2018-09-02T03:21:01.618Z,1013.91
2018-09-02T03:22:01.598Z,1013.95
2018-09-02T03:23:01.575Z,1013.90
2018-09-02T03:24:01.590Z,1013.93
2018-09-02T03:25:01.582Z,1013.90
2018-09-02T03:26:01.539Z,1013.92
2018-09-02T03:27:01.524Z,1013.95
2018-09-02T03:28:01.514Z,1013.92
2018-09-02T03:29:01.501Z,1013.89
2018-09-02T03:30:01.518Z,1013.87
2018-09-02T03:31:01.484Z,1013.91
2018-09-02T03:32:01.457Z,1013.88
2018-09-02T03:33:01.449Z,1013.89
2018-09-02T03:34:01.505Z,1013.87
2018-09-02T03:35:01.431Z,1013.90
2018-09-02T03:36:01.414Z,1013.88
2018-09-02T03:37:01.408Z,1013.85
2018-09-02T03:38:01.387Z,1013.82
2018-09-02T03:39:01.377Z,1013.83
2018-09-02T03:40:01.399Z,1013.85
2018-09-02T03:41:01.361Z,1013.80
2018-09-02T03:42:01.354Z,1013.82
2018-09-02T03:43:01.342Z,1013.79
2018-09-02T03:44:01.315Z,1013.86
2018-09-02T03:45:01.351Z,1013.77
2018-09-02T03:46:01.302Z,1013.80
2018-09-02T03:47:01.293Z,1013.77
2018-09-02T03:48:01.269Z,1013.79
2018-09-02T03:49:01.263Z,1013.78
2018-09-02T03:50:01.293Z,1013.76
2018-09-02T03:51:01.243Z,1013.77
2018-09-02T03:52:01.221Z,1013.71
2018-09-02T03:53:01.224Z,1013.73
2018-09-02T03:54:01.217Z,1013.69
2018-09-02T03:55:01.248Z,1013.67
2018-09-02T03:56:01.181Z,1013.67
2018-09-02T03:57:01.174Z,1013.68
2018-09-02T03:58:01.151Z,1013.66
2018-09-02T03:59:01.150Z,1013.64
2018-09-02T04:00:01.148Z,1013.67
2018-09-02T04:01:01.125Z,1013.65
2018-09-02T04:02:01.160Z,1013.63
2018-09-02T04:03:01.090Z,1013.61
2018-09-02T04:04:01.091Z,1013.59
2018-09-02T04:05:01.081Z,1013.60
2018-09-02T04:06:01.100Z,1013.58
2018-09-02T04:07:01.058Z,1013.57
2018-09-02T04:08:01.048Z,1013.59
2018-09-02T04:09:01.033Z,1013.58
2018-09-02T04:10:01.051Z,1013.55
2018-09-02T04:11:01.008Z,1013.59
2018-09-02T04:12:01.026Z,1013.58
2018-09-02T04:13:00.986Z,1013.57
2018-09-02T04:14:00.996Z,1013.57
2018-09-02T04:15:00.988Z,1013.58
2018-09-02T04:16:00.946Z,1013.60
2018-09-02T04:17:00.925Z,1013.55
2018-09-02T04:18:00.935Z,1013.55
2018-09-02T04:19:00.911Z,1013.58
2018-09-02T04:20:00.924Z,1013.59
2018-09-02T04:21:00.887Z,1013.56
2018-09-02T04:22:00.910Z,1013.55
2018-09-02T04:23:00.870Z,1013.54
2018-09-02T04:24:00.848Z,1013.52
2018-09-02T04:25:00.837Z,1013.53
2018-09-02T04:26:00.824Z,1013.53
2018-09-02T04:27:00.880Z,1013.53
2018-09-02T04:28:00.796Z,1013.53
2018-09-02T04:29:00.792Z,1013.53
2018-09-02T04:30:00.788Z,1013.52
2018-09-02T04:31:00.801Z,1013.51
2018-09-02T04:32:00.759Z,1013.53
2018-09-02T04:33:00.740Z,1013.54
2018-09-02T04:34:00.734Z,1013.53
2018-09-02T04:35:00.720Z,1013.55
2018-09-02T04:36:00.730Z,1013.55
2018-09-02T04:37:00.692Z,1013.56
2018-09-02T04:38:00.687Z,1013.58
2018-09-02T04:39:00.673Z,1013.57
2018-09-02T04:40:00.690Z,1013.49
2018-09-02T04:41:00.644Z,1013.53
2018-09-02T04:42:00.661Z,1013.57
2018-09-02T04:43:00.628Z,1013.53
2018-09-02T04:44:00.609Z,1013.55
2018-09-02T04:45:00.609Z,1013.59
2018-09-02T04:46:00.956Z,1013.55
2018-09-02T04:47:00.581Z,1013.56
2018-09-02T04:48:00.553Z,1013.57
2018-09-02T04:49:00.555Z,1013.54
2018-09-02T04:50:00.541Z,1013.57
2018-09-02T04:51:00.523Z,1013.55
2018-09-02T04:52:00.537Z,1013.58
2018-09-02T04:53:00.499Z,1013.56
2018-09-02T04:54:00.486Z,1013.58
2018-09-02T04:55:00.475Z,1013.58
2018-09-02T04:56:00.472Z,1013.57
2018-09-02T04:57:00.476Z,1013.59
2018-09-02T04:58:00.438Z,1013.59
2018-09-02T04:59:00.424Z,1013.62
2018-09-02T05:00:00.420Z,1013.62
2018-09-02T05:01:00.397Z,1013.65
2018-09-02T05:02:00.441Z,1013.61
2018-09-02T05:03:00.381Z,1013.62
2018-09-02T05:04:00.403Z,1013.61
2018-09-02T05:05:00.358Z,1013.57
2018-09-02T05:06:00.340Z,1013.59
2018-09-02T05:07:00.341Z,1013.58
2018-09-02T05:08:00.324Z,1013.58
2018-09-02T05:09:00.333Z,1013.62
2018-09-02T05:10:00.310Z,1013.61
2018-09-02T05:11:00.284Z,1013.58
2018-09-02T05:12:00.275Z,1013.65
2018-09-02T05:13:00.264Z,1013.63
2018-09-02T05:14:00.295Z,1013.63
2018-09-02T05:15:00.239Z,1013.67
2018-09-02T05:16:00.226Z,1013.63
2018-09-02T05:17:00.214Z,1013.62
2018-09-02T05:18:00.201Z,1013.62
2018-09-02T05:19:00.190Z,1013.63
2018-09-02T05:20:00.182Z,1013.62
2018-09-02T05:21:00.199Z,1013.63
2018-09-02T05:22:00.150Z,1013.62
2018-09-02T05:23:00.141Z,1013.63
2018-09-02T05:24:00.143Z,1013.64
2018-09-02T05:25:00.127Z,1013.65
2018-09-02T05:26:00.100Z,1013.63
2018-09-02T05:27:00.087Z,1013.65
2018-09-02T05:28:00.079Z,1013.66
2018-09-02T05:29:00.061Z,1013.67
2018-09-02T05:30:00.052Z,1013.65
2018-09-02T05:31:00.042Z,1013.63
2018-09-02T05:32:00.041Z,1013.60
2018-09-02T05:33:00.021Z,1013.60
2018-09-02T05:34:00.039Z,1013.62
2018-09-02T05:35:00.011Z,1013.62
2018-09-02T05:35:59.982Z,1013.61
2018-09-02T05:37:00.015Z,1013.61
2018-09-02T05:38:00.009Z,1013.66
2018-09-02T05:38:59.941Z,1013.65
2018-09-02T05:39:59.947Z,1013.67
2018-09-02T05:41:00.017Z,1013.68
2018-09-02T05:41:59.916Z,1013.68
2018-09-02T05:42:59.907Z,1013.67
2018-09-02T05:43:59.901Z,1013.67
2018-09-02T05:44:59.879Z,1013.68
2018-09-02T05:45:59.867Z,1013.69
2018-09-02T05:47:00.221Z,1013.72
2018-09-02T05:47:59.832Z,1013.72
2018-09-02T05:48:59.828Z,1013.76
2018-09-02T05:49:59.808Z,1013.76
2018-09-02T05:50:59.808Z,1013.78
2018-09-02T05:51:59.794Z,1013.79
2018-09-02T05:52:59.789Z,1013.79
2018-09-02T05:53:59.766Z,1013.78
2018-09-02T05:54:59.759Z,1013.80
2018-09-02T05:55:59.745Z,1013.81
2018-09-02T05:56:59.740Z,1013.76
2018-09-02T05:57:59.747Z,1013.79
2018-09-02T05:58:59.713Z,1013.79
2018-09-02T05:59:59.703Z,1013.76
2018-09-02T06:00:59.685Z,1013.75
2018-09-02T06:01:59.681Z,1013.75
2018-09-02T06:02:59.711Z,1013.75
2018-09-02T06:03:59.653Z,1013.73
2018-09-02T06:04:59.643Z,1013.76
2018-09-02T06:05:59.629Z,1013.80
2018-09-02T06:06:59.611Z,1013.81
2018-09-02T06:07:59.604Z,1013.82
2018-09-02T06:08:59.626Z,1013.80
2018-09-02T06:09:59.586Z,1013.81
2018-09-02T06:10:59.573Z,1013.78
2018-09-02T06:11:59.563Z,1013.82
2018-09-02T06:12:59.550Z,1013.83
2018-09-02T06:13:59.569Z,1013.81
2018-09-02T06:14:59.530Z,1013.80
2018-09-02T06:15:59.505Z,1013.81
2018-09-02T06:16:59.503Z,1013.82
2018-09-02T06:17:59.498Z,1013.78
2018-09-02T06:18:59.541Z,1013.80
2018-09-02T06:19:59.465Z,1013.77
2018-09-02T06:20:59.451Z,1013.81
2018-09-02T06:21:59.493Z,1013.80
2018-09-02T06:22:59.438Z,1013.81
2018-09-02T06:23:59.429Z,1013.79
2018-09-02T06:24:59.413Z,1013.83
2018-09-02T06:25:59.393Z,1013.82
2018-09-02T06:26:59.374Z,1013.83
2018-09-02T06:27:59.369Z,1013.82
2018-09-02T06:28:59.362Z,1013.86
2018-09-02T06:29:59.420Z,1013.82
2018-09-02T06:30:59.373Z,1013.83
2018-09-02T06:31:59.327Z,1013.85
2018-09-02T06:32:59.407Z,1013.85
2018-09-02T06:33:59.308Z,1013.84
2018-09-02T06:34:59.291Z,1013.81
2018-09-02T06:35:59.335Z,1013.79
2018-09-02T06:36:59.272Z,1013.78
2018-09-02T06:37:59.249Z,1013.84
2018-09-02T06:38:59.251Z,1013.82
2018-09-02T06:39:59.231Z,1013.83
2018-09-02T06:40:59.218Z,1013.85
2018-09-02T06:41:59.210Z,1013.81
2018-09-02T06:42:59.202Z,1013.83
2018-09-02T06:43:59.201Z,1013.84
2018-09-02T06:44:59.170Z,1013.84
2018-09-02T06:45:59.200Z,1013.78
2018-09-02T06:46:59.161Z,1013.79
2018-09-02T06:47:59.144Z,1013.76
2018-09-02T06:48:59.123Z,1013.77
2018-09-02T06:49:59.132Z,1013.76
2018-09-02T06:50:59.138Z,1013.81
2018-09-02T06:51:59.102Z,1013.76
2018-09-02T06:52:59.110Z,1013.77
2018-09-02T06:53:59.083Z,1013.80
2018-09-02T06:54:59.064Z,1013.80
2018-09-02T06:55:59.059Z,1013.77
2018-09-02T06:56:59.052Z,1013.79
2018-09-02T06:57:59.067Z,1013.78
2018-09-02T06:58:59.023Z,1013.83
2018-09-02T06:59:59.014Z,1013.78
2018-09-02T07:00:59.083Z,1013.79
2018-09-02T07:01:58.986Z,1013.77
2018-09-02T07:02:58.985Z,1013.76
2018-09-02T07:03:58.974Z,1013.72
2018-09-02T07:04:58.958Z,1013.70
2018-09-02T07:05:58.949Z,1013.72
2018-09-02T07:06:58.935Z,1013.73
2018-09-02T07:07:58.952Z,1013.75
2018-09-02T07:08:58.913Z,1013.76
2018-09-02T07:09:58.902Z,1013.80
2018-09-02T07:10:58.887Z,1013.79
2018-09-02T07:11:58.882Z,1013.78
2018-09-02T07:12:58.876Z,1013.82
2018-09-02T07:13:58.871Z,1013.78
2018-09-02T07:14:58.856Z,1013.77
2018-09-02T07:15:58.876Z,1013.78
2018-09-02T07:16:58.830Z,1013.77
2018-09-02T07:17:58.825Z,1013.80
2018-09-02T07:18:58.840Z,1013.77
2018-09-02T07:19:58.841Z,1013.80
2018-09-02T07:20:58.819Z,1013.76
2018-09-02T07:21:58.780Z,1013.80
2018-09-02T07:22:58.769Z,1013.79
2018-09-02T07:23:58.749Z,1013.81
2018-09-02T07:24:58.733Z,1013.81
2018-09-02T07:25:58.761Z,1013.77
2018-09-02T07:26:58.716Z,1013.78
2018-09-02T07:27:58.712Z,1013.75
2018-09-02T07:28:58.699Z,1013.78
2018-09-02T07:29:58.695Z,1013.80
2018-09-02T07:30:58.710Z,1013.77
2018-09-02T07:31:58.670Z,1013.73
2018-09-02T07:32:58.647Z,1013.77
2018-09-02T07:33:58.640Z,1013.77
2018-09-02T07:34:58.632Z,1013.72
2018-09-02T07:35:58.656Z,1013.71
2018-09-02T07:36:58.618Z,1013.75
2018-09-02T07:37:58.600Z,1013.72
2018-09-02T07:38:58.595Z,1013.74
2018-09-02T07:39:58.572Z,1013.74
2018-09-02T07:40:58.591Z,1013.75
2018-09-02T07:41:58.562Z,1013.73
2018-09-02T07:42:58.555Z,1013.73
2018-09-02T07:43:58.546Z,1013.77
2018-09-02T07:44:58.536Z,1013.73
2018-09-02T07:45:58.543Z,1013.76
2018-09-02T07:46:58.498Z,1013.78
2018-09-02T07:47:58.493Z,1013.75
2018-09-02T07:48:58.490Z,1013.79
2018-09-02T07:49:58.473Z,1013.77
2018-09-02T07:50:58.517Z,1013.78
2018-09-02T07:51:58.452Z,1013.78
2018-09-02T07:52:58.447Z,1013.82
2018-09-02T07:53:58.434Z,1013.80
2018-09-02T07:54:58.425Z,1013.82
2018-09-02T07:55:58.400Z,1013.82
2018-09-02T07:56:58.434Z,1013.85
2018-09-02T07:57:58.387Z,1013.84
2018-09-02T07:58:58.380Z,1013.84
2018-09-02T07:59:58.371Z,1013.81
2018-09-02T08:00:58.357Z,1013.89
2018-09-02T08:01:58.361Z,1013.86
2018-09-02T08:02:58.336Z,1013.88
2018-09-02T08:03:58.319Z,1013.88
2018-09-02T08:04:58.360Z,1013.89
2018-09-02T08:05:58.310Z,1013.87
2018-09-02T08:06:58.297Z,1013.90
2018-09-02T08:07:58.288Z,1013.89
2018-09-02T08:08:58.265Z,1013.88
2018-09-02T08:09:58.253Z,1013.85
2018-09-02T08:10:58.256Z,1013.85
2018-09-02T08:11:58.235Z,1013.86
2018-09-02T08:12:58.370Z,1013.84
2018-09-02T08:13:58.225Z,1013.79
2018-09-02T08:14:58.238Z,1013.82
2018-09-02T08:15:58.278Z,1013.81
2018-09-02T08:16:58.186Z,1013.86
2018-09-02T08:17:58.181Z,1013.87
2018-09-02T08:18:58.168Z,1013.85
2018-09-02T08:19:58.292Z,1013.87
2018-09-02T08:20:58.279Z,1013.85
2018-09-02T08:21:58.135Z,1013.87
2018-09-02T08:22:58.133Z,1013.86
2018-09-02T08:23:58.125Z,1013.86
2018-09-02T08:24:58.107Z,1013.86
2018-09-02T08:25:58.129Z,1013.90
2018-09-02T08:26:58.118Z,1013.84
2018-09-02T08:27:58.080Z,1013.82
2018-09-02T08:28:58.060Z,1013.84
2018-09-02T08:29:58.063Z,1013.83
2018-09-02T08:30:58.055Z,1013.83
2018-09-02T08:31:58.079Z,1013.81
2018-09-02T08:32:58.090Z,1013.85
2018-09-02T08:33:58.018Z,1013.84
2018-09-02T08:34:58.007Z,1013.85
2018-09-02T08:35:58.010Z,1013.84
2018-09-02T08:36:57.989Z,1013.82
2018-09-02T08:37:58.005Z,1013.83
2018-09-02T08:38:58.017Z,1013.81
2018-09-02T08:39:57.965Z,1013.79
2018-09-02T08:40:57.955Z,1013.78
2018-09-02T08:41:57.941Z,1013.74
2018-09-02T08:42:57.956Z,1013.73
2018-09-02T08:43:57.945Z,1013.81
2018-09-02T08:44:57.907Z,1013.88
2018-09-02T08:45:57.938Z,1013.84
2018-09-02T08:46:58.141Z,1013.81
2018-09-02T08:47:57.996Z,1013.75
2018-09-02T08:48:57.880Z,1013.76
2018-09-02T08:49:57.905Z,1013.79
2018-09-02T08:50:57.861Z,1013.79
2018-09-02T08:51:57.849Z,1013.76
2018-09-02T08:52:57.845Z,1013.78
2018-09-02T08:53:57.826Z,1013.80
2018-09-02T08:54:57.828Z,1013.81
2018-09-02T08:55:57.878Z,1013.75
2018-09-02T08:56:57.803Z,1013.74
2018-09-02T08:57:57.798Z,1013.77
2018-09-02T08:58:57.794Z,1013.74
2018-09-02T08:59:57.782Z,1013.77
2018-09-02T09:00:57.791Z,1013.77
2018-09-02T09:01:57.759Z,1013.77
2018-09-02T09:02:57.753Z,1013.76
2018-09-02T09:03:57.737Z,1013.75
2018-09-02T09:04:57.729Z,1013.72
2018-09-02T09:05:57.747Z,1013.72
2018-09-02T09:06:57.746Z,1013.74
2018-09-02T09:07:57.770Z,1013.69
2018-09-02T09:08:58.005Z,1013.65
2018-09-02T09:09:57.688Z,1013.61
2018-09-02T09:10:58.922Z,1013.58
2018-09-02T09:11:57.671Z,1013.54
2018-09-02T09:12:57.651Z,1013.55
2018-09-02T09:13:57.697Z,1013.56
2018-09-02T09:14:57.889Z,1013.59
2018-09-02T09:15:57.642Z,1013.60
2018-09-02T09:16:58.375Z,1013.57
2018-09-02T09:17:57.613Z,1013.57
2018-09-02T09:18:57.596Z,1013.61
2018-09-02T09:19:57.622Z,1013.62
2018-09-02T09:20:57.590Z,1013.63
2018-09-02T09:21:57.571Z,1013.64
2018-09-02T09:22:57.562Z,1013.64
2018-09-02T09:23:57.617Z,1013.67
2018-09-02T09:24:57.590Z,1013.67
2018-09-02T09:25:57.539Z,1013.67
2018-09-02T09:26:57.532Z,1013.63
2018-09-02T09:27:57.541Z,1013.62
2018-09-02T09:28:57.533Z,1013.64
2018-09-02T09:29:57.495Z,1013.67
2018-09-02T09:30:57.492Z,1013.68
2018-09-02T09:31:57.839Z,1013.66
2018-09-02T09:32:57.473Z,1013.73
2018-09-02T09:33:57.529Z,1013.68
2018-09-02T09:34:57.466Z,1013.65
2018-09-02T09:35:57.460Z,1013.56
2018-09-02T09:36:57.440Z,1013.59
2018-09-02T09:37:57.424Z,1013.67
2018-09-02T09:38:57.429Z,1013.64
2018-09-02T09:39:57.450Z,1013.55
2018-09-02T09:40:57.414Z,1013.58
2018-09-02T09:41:57.392Z,1013.60
2018-09-02T09:42:57.389Z,1013.61
2018-09-02T09:43:57.410Z,1013.58
2018-09-02T09:44:57.400Z,1013.55
2018-09-02T09:45:57.369Z,1013.59
2018-09-02T09:46:57.355Z,1013.60
2018-09-02T09:47:57.361Z,1013.64
2018-09-02T09:48:57.339Z,1013.59
2018-09-02T09:49:57.380Z,1013.58
2018-09-02T09:50:57.321Z,1013.56
2018-09-02T09:51:57.317Z,1013.60
2018-09-02T09:52:57.295Z,1013.57
2018-09-02T09:53:57.286Z,1013.53
2018-09-02T09:54:57.287Z,1013.55
2018-09-02T09:55:57.310Z,1013.54
2018-09-02T09:56:57.267Z,1013.51
2018-09-02T09:57:57.268Z,1013.47
2018-09-02T09:58:57.243Z,1013.50
2018-09-02T09:59:57.310Z,1013.45
2018-09-02T10:00:57.237Z,1013.45
2018-09-02T10:01:57.226Z,1013.46
2018-09-02T10:02:57.224Z,1013.47
2018-09-02T10:03:57.212Z,1013.46
2018-09-02T10:04:57.199Z,1013.47
2018-09-02T10:05:57.229Z,1013.49
2018-09-02T10:06:57.186Z,1013.49
2018-09-02T10:07:57.177Z,1013.50
2018-09-02T10:08:57.160Z,1013.49
2018-09-02T10:09:57.159Z,1013.50
2018-09-02T10:10:57.203Z,1013.57
2018-09-02T10:11:57.144Z,1013.64
2018-09-02T10:12:57.136Z,1013.58
2018-09-02T10:13:57.130Z,1013.60
2018-09-02T10:14:57.118Z,1013.59
2018-09-02T10:15:57.114Z,1013.57
2018-09-02T10:16:57.165Z,1013.64
2018-09-02T10:17:57.126Z,1013.46
2018-09-02T10:18:57.088Z,1013.51
2018-09-02T10:19:57.087Z,1013.43
2018-09-02T10:20:57.082Z,1013.44
2018-09-02T10:21:57.072Z,1013.55
2018-09-02T10:22:57.084Z,1013.48
2018-09-02T10:23:57.049Z,1013.42
2018-09-02T10:24:57.051Z,1013.42
2018-09-02T10:25:57.044Z,1013.42
2018-09-02T10:26:57.050Z,1013.41
2018-09-02T10:27:57.061Z,1013.36
2018-09-02T10:28:57.023Z,1013.35
2018-09-02T10:29:57.069Z,1013.31
2018-09-02T10:30:57.011Z,1013.28
2018-09-02T10:31:57.009Z,1013.23
2018-09-02T10:32:57.000Z,1013.26
2018-09-02T10:33:56.998Z,1013.31
2018-09-02T10:34:56.988Z,1013.25
2018-09-02T10:35:56.985Z,1013.26
2018-09-02T10:36:56.969Z,1013.23
2018-09-02T10:37:56.964Z,1013.14
2018-09-02T10:38:56.950Z,1013.17
2018-09-02T10:39:56.948Z,1013.10
2018-09-02T10:40:56.960Z,1013.15
2018-09-02T10:41:56.931Z,1013.17
2018-09-02T10:42:56.931Z,1013.15
2018-09-02T10:43:56.914Z,1013.16
2018-09-02T10:44:56.927Z,1013.12
2018-09-02T10:45:56.905Z,1013.08
2018-09-02T10:46:56.905Z,1013.11
2018-09-02T10:47:56.920Z,1013.11
2018-09-02T10:48:56.896Z,1013.05
2018-09-02T10:49:56.874Z,1013.03
2018-09-02T10:50:56.869Z,1013.01
2018-09-02T10:51:56.864Z,1012.96
2018-09-02T10:52:56.890Z,1012.97
2018-09-02T10:53:56.847Z,1012.96
2018-09-02T10:54:56.835Z,1013.00
2018-09-02T10:55:56.829Z,1012.94
2018-09-02T10:56:56.859Z,1012.93
2018-09-02T10:57:56.824Z,1012.93
2018-09-02T10:58:56.822Z,1012.90
2018-09-02T10:59:56.811Z,1012.95
2018-09-02T11:00:56.792Z,1012.97
2018-09-02T11:01:56.834Z,1013.08
2018-09-02T11:02:56.785Z,1012.98
2018-09-02T11:03:56.772Z,1012.95
2018-09-02T11:04:56.766Z,1012.91
2018-09-02T11:05:56.750Z,1012.99
2018-09-02T11:06:56.756Z,1012.99
2018-09-02T11:07:56.760Z,1013.10
2018-09-02T11:08:56.750Z,1012.90
2018-09-02T11:09:56.733Z,1012.92
2018-09-02T11:10:56.728Z,1012.91
2018-09-02T11:11:56.712Z,1012.88
2018-09-02T11:12:56.776Z,1012.89
2018-09-02T11:13:56.871Z,1012.86
2018-09-02T11:14:56.700Z,1012.85
2018-09-02T11:15:56.687Z,1012.79
2018-09-02T11:16:56.693Z,1012.83
2018-09-02T11:17:56.671Z,1012.79
2018-09-02T11:18:56.662Z,1012.76
2018-09-02T11:19:56.663Z,1012.82
2018-09-02T11:20:56.654Z,1012.72
2018-09-02T11:21:56.650Z,1012.70
2018-09-02T11:22:56.646Z,1012.74
2018-09-02T11:23:56.632Z,1012.71
2018-09-02T11:24:56.633Z,1012.70
2018-09-02T11:25:56.636Z,1012.66
2018-09-02T11:26:56.620Z,1012.71
2018-09-02T11:27:56.607Z,1012.76
2018-09-02T11:28:56.629Z,1012.75
2018-09-02T11:29:56.593Z,1012.71
2018-09-02T11:30:56.575Z,1012.69
2018-09-02T11:31:56.573Z,1012.67
2018-09-02T11:32:56.601Z,1012.66
2018-09-02T11:33:56.610Z,1012.66
2018-09-02T11:34:56.558Z,1012.58
2018-09-02T11:35:56.551Z,1012.59
2018-09-02T11:36:56.536Z,1012.53
2018-09-02T11:37:56.675Z,1012.58
2018-09-02T11:38:56.523Z,1012.57
2018-09-02T11:39:56.520Z,1012.57
2018-09-02T11:40:56.508Z,1012.53
2018-09-02T11:41:56.504Z,1012.50
2018-09-02T11:42:56.487Z,1012.52
2018-09-02T11:43:56.515Z,1012.51
2018-09-02T11:44:56.538Z,1012.46
2018-09-02T11:45:56.467Z,1012.45
2018-09-02T11:46:56.490Z,1012.47
2018-09-02T11:47:56.460Z,1012.41
2018-09-02T11:48:56.444Z,1012.39
2018-09-02T11:49:56.438Z,1012.38
2018-09-02T11:50:56.512Z,1012.33
2018-09-02T11:51:56.433Z,1012.34
2018-09-02T11:52:56.412Z,1012.32
2018-09-02T11:53:56.414Z,1012.32
2018-09-02T11:54:56.403Z,1012.35
2018-09-02T11:55:56.399Z,1012.37
2018-09-02T11:56:56.417Z,1012.31
2018-09-02T11:57:56.381Z,1012.36
2018-09-02T11:58:56.366Z,1012.33
2018-09-02T11:59:56.370Z,1012.32
2018-09-02T12:00:56.365Z,1012.34
2018-09-02T12:01:56.386Z,1012.30
2018-09-02T12:02:56.350Z,1012.30
2018-09-02T12:03:56.395Z,1012.30
2018-09-02T12:04:56.410Z,1012.27